sensor_id;sensor_type;location;lat;lon;timestamp;P1;durP1;ratioP1;P2;durP2;ratioP2
53064;SDS011;38948;48.376;-4.312;2022-11-03T00:01:36;7.22;;;1.00;;
53064;SDS011;38948;48.376;-4.312;2022-11-03T00:04:05;4.90;;;0.73;;
53064;SDS011;38948;48.376;-4.312;2022-11-03T00:06:34;4.80;;;1.00;;
53064;SDS011;38948;48.376;-4.312;2022-11-03T00:09:02;1.35;;;0.80;;
53064;SDS011;38948;48.376;-4.312;2022-11-03T00:11:35;4.55;;;0.88;;
53064;SDS011;38948;48.376;-4.312;2022-11-03T00:14:02;3.33;;;0.77;;
53064;SDS011;38948;48.376;-4.312;2022-11-03T00:16:28;3.17;;;0.98;;
53064;SDS011;38948;48.376;-4.312;2022-11-03T00:18:54;3.78;;;0.80;;
53064;SDS011;38948;48.376;-4.312;2022-11-03T00:21:20;2.80;;;0.70;;
53064;SDS011;38948;48.376;-4.312;2022-11-03T00:23:46;2.72;;;0.80;;
53064;SDS011;38948;48.376;-4.312;2022-11-03T00:26:22;2.85;;;0.70;;
53064;SDS011;38948;48.376;-4.312;2022-11-03T00:28:50;2.15;;;0.70;;
53064;SDS011;38948;48.376;-4.312;2022-11-03T00:31:18;2.42;;;0.57;;
53064;SDS011;38948;48.376;-4.312;2022-11-03T00:33:46;5.78;;;0.85;;
53064;SDS011;38948;48.376;-4.312;2022-11-03T00:36:13;3.75;;;0.95;;
53064;SDS011;38948;48.376;-4.312;2022-11-03T00:38:49;5.40;;;0.95;;
53064;SDS011;38948;48.376;-4.312;2022-11-03T00:41:15;3.38;;;0.63;;
53064;SDS011;38948;48.376;-4.312;2022-11-03T00:43:42;5.40;;;1.35;;
53064;SDS011;38948;48.376;-4.312;2022-11-03T00:46:08;2.28;;;0.70;;
53064;SDS011;38948;48.376;-4.312;2022-11-03T00:48:34;2.17;;;1.00;;
53064;SDS011;38948;48.376;-4.312;2022-11-03T00:51:02;3.60;;;0.93;;
53064;SDS011;38948;48.376;-4.312;2022-11-03T00:53:35;5.22;;;1.02;;
53064;SDS011;38948;48.376;-4.312;2022-11-03T00:56:02;3.17;;;1.13;;
53064;SDS011;38948;48.376;-4.312;2022-11-03T00:58:29;3.60;;;0.80;;
53064;SDS011;38948;48.376;-4.312;2022-11-03T01:01:05;5.80;;;1.20;;
53064;SDS011;38948;48.376;-4.312;2022-11-03T01:03:43;3.95;;;0.55;;
53064;SDS011;38948;48.376;-4.312;2022-11-03T01:06:34;4.20;;;0.70;;
53064;SDS011;38948;48.376;-4.312;2022-11-03T01:09:20;2.63;;;0.70;;
53064;SDS011;38948;48.376;-4.312;2022-11-03T01:12:13;3.60;;;1.00;;
53064;SDS011;38948;48.376;-4.312;2022-11-03T01:14:50;5.18;;;1.00;;
53064;SDS011;38948;48.376;-4.312;2022-11-03T01:17:18;3.05;;;1.23;;
53064;SDS011;38948;48.376;-4.312;2022-11-03T01:19:46;3.28;;;1.00;;
53064;SDS011;38948;48.376;-4.312;2022-11-03T01:22:12;4.20;;;0.75;;
53064;SDS011;38948;48.376;-4.312;2022-11-03T01:24:39;2.00;;;0.80;;
53064;SDS011;38948;48.376;-4.312;2022-11-03T01:27:06;3.92;;;1.00;;
53064;SDS011;38948;48.376;-4.312;2022-11-03T01:29:33;1.55;;;0.43;;
53064;SDS011;38948;48.376;-4.312;2022-11-03T01:31:59;2.85;;;0.93;;
53064;SDS011;38948;48.376;-4.312;2022-11-03T01:34:24;4.80;;;0.95;;
53064;SDS011;38948;48.376;-4.312;2022-11-03T01:36:50;1.48;;;0.68;;
53064;SDS011;38948;48.376;-4.312;2022-11-03T01:39:17;2.95;;;0.60;;
53064;SDS011;38948;48.376;-4.312;2022-11-03T01:41:45;2.65;;;0.50;;
53064;SDS011;38948;48.376;-4.312;2022-11-03T01:46:53;3.33;;;1.65;;
53064;SDS011;38948;48.376;-4.312;2022-11-03T01:49:24;3.78;;;0.98;;
53064;SDS011;38948;48.376;-4.312;2022-11-03T01:51:53;2.92;;;0.82;;
53064;SDS011;38948;48.376;-4.312;2022-11-03T01:54:26;1.77;;;0.70;;
53064;SDS011;38948;48.376;-4.312;2022-11-03T01:56:55;3.03;;;0.73;;
53064;SDS011;38948;48.376;-4.312;2022-11-03T01:59:23;3.53;;;0.80;;
53064;SDS011;38948;48.376;-4.312;2022-11-03T02:01:49;3.33;;;1.10;;
53064;SDS011;38948;48.376;-4.312;2022-11-03T02:04:17;4.63;;;1.30;;
53064;SDS011;38948;48.376;-4.312;2022-11-03T02:06:48;2.97;;;1.08;;
53064;SDS011;38948;48.376;-4.312;2022-11-03T02:09:30;4.45;;;1.13;;
53064;SDS011;38948;48.376;-4.312;2022-11-03T02:11:56;3.38;;;0.98;;
53064;SDS011;38948;48.376;-4.312;2022-11-03T02:14:31;6.43;;;0.77;;
53064;SDS011;38948;48.376;-4.312;2022-11-03T02:16:59;3.67;;;0.82;;
53064;SDS011;38948;48.376;-4.312;2022-11-03T02:27:55;1.48;;;0.40;;
53064;SDS011;38948;48.376;-4.312;2022-11-03T02:30:21;2.47;;;0.90;;
53064;SDS011;38948;48.376;-4.312;2022-11-03T02:32:51;4.85;;;0.93;;
53064;SDS011;38948;48.376;-4.312;2022-11-03T02:38:35;4.75;;;1.05;;
53064;SDS011;38948;48.376;-4.312;2022-11-03T02:41:12;4.50;;;0.98;;
53064;SDS011;38948;48.376;-4.312;2022-11-03T02:43:40;2.13;;;0.73;;
53064;SDS011;38948;48.376;-4.312;2022-11-03T02:46:07;5.20;;;1.13;;
53064;SDS011;38948;48.376;-4.312;2022-11-03T02:48:35;4.53;;;1.83;;
53064;SDS011;38948;48.376;-4.312;2022-11-03T02:51:02;2.97;;;0.75;;
53064;SDS011;38948;48.376;-4.312;2022-11-03T02:53:28;4.57;;;0.85;;
53064;SDS011;38948;48.376;-4.312;2022-11-03T02:58:53;3.88;;;1.23;;
53064;SDS011;38948;48.376;-4.312;2022-11-03T03:01:27;2.92;;;0.65;;
53064;SDS011;38948;48.376;-4.312;2022-11-03T03:07:11;4.55;;;1.23;;
53064;SDS011;38948;48.376;-4.312;2022-11-03T03:09:44;5.38;;;0.90;;
53064;SDS011;38948;48.376;-4.312;2022-11-03T03:12:13;3.25;;;0.60;;
53064;SDS011;38948;48.376;-4.312;2022-11-03T03:14:41;3.42;;;0.90;;
53064;SDS011;38948;48.376;-4.312;2022-11-03T03:17:14;4.03;;;0.80;;
53064;SDS011;38948;48.376;-4.312;2022-11-03T03:22:52;1.90;;;0.98;;
53064;SDS011;38948;48.376;-4.312;2022-11-03T03:27:49;3.03;;;0.85;;
53064;SDS011;38948;48.376;-4.312;2022-11-03T03:30:18;2.63;;;0.75;;
53064;SDS011;38948;48.376;-4.312;2022-11-03T03:32:45;1.65;;;0.80;;
53064;SDS011;38948;48.376;-4.312;2022-11-03T03:35:13;4.55;;;1.20;;
53064;SDS011;38948;48.376;-4.312;2022-11-03T03:37:44;4.20;;;0.80;;
53064;SDS011;38948;48.376;-4.312;2022-11-03T03:40:14;4.03;;;0.70;;
53064;SDS011;38948;48.376;-4.312;2022-11-03T03:42:45;3.03;;;0.60;;
53064;SDS011;38948;48.376;-4.312;2022-11-03T03:45:12;2.05;;;0.50;;
53064;SDS011;38948;48.376;-4.312;2022-11-03T03:47:39;2.53;;;0.45;;
53064;SDS011;38948;48.376;-4.312;2022-11-03T03:50:05;3.28;;;0.90;;
53064;SDS011;38948;48.376;-4.312;2022-11-03T03:52:32;1.70;;;0.60;;
53064;SDS011;38948;48.376;-4.312;2022-11-03T03:54:58;1.80;;;0.63;;
53064;SDS011;38948;48.376;-4.312;2022-11-03T03:57:24;1.55;;;0.40;;
53064;SDS011;38948;48.376;-4.312;2022-11-03T03:59:53;1.77;;;0.50;;
53064;SDS011;38948;48.376;-4.312;2022-11-03T04:02:18;2.35;;;0.52;;
53064;SDS011;38948;48.376;-4.312;2022-11-03T04:04:45;1.63;;;0.50;;
53064;SDS011;38948;48.376;-4.312;2022-11-03T04:07:10;1.70;;;0.40;;
53064;SDS011;38948;48.376;-4.312;2022-11-03T04:09:55;3.78;;;0.70;;
53064;SDS011;38948;48.376;-4.312;2022-11-03T04:12:20;1.08;;;0.50;;
53064;SDS011;38948;48.376;-4.312;2022-11-03T04:15:04;2.28;;;0.55;;
53064;SDS011;38948;48.376;-4.312;2022-11-03T04:17:49;1.87;;;0.37;;
53064;SDS011;38948;48.376;-4.312;2022-11-03T04:20:34;2.07;;;0.60;;
53064;SDS011;38948;48.376;-4.312;2022-11-03T04:23:18;1.23;;;0.40;;
53064;SDS011;38948;48.376;-4.312;2022-11-03T04:25:48;2.20;;;0.43;;
53064;SDS011;38948;48.376;-4.312;2022-11-03T04:28:16;2.25;;;0.65;;
53064;SDS011;38948;48.376;-4.312;2022-11-03T04:30:43;2.88;;;0.55;;
53064;SDS011;38948;48.376;-4.312;2022-11-03T04:33:15;0.63;;;0.30;;
53064;SDS011;38948;48.376;-4.312;2022-11-03T04:35:45;2.45;;;0.50;;
53064;SDS011;38948;48.376;-4.312;2022-11-03T04:40:38;2.45;;;0.50;;
53064;SDS011;38948;48.376;-4.312;2022-11-03T04:43:12;1.15;;;0.20;;
53064;SDS011;38948;48.376;-4.312;2022-11-03T04:45:41;2.50;;;0.75;;
53064;SDS011;38948;48.376;-4.312;2022-11-03T04:48:10;0.40;;;0.20;;
53064;SDS011;38948;48.376;-4.312;2022-11-03T04:50:40;0.77;;;0.20;;
53064;SDS011;38948;48.376;-4.312;2022-11-03T04:53:11;0.65;;;0.30;;
53064;SDS011;38948;48.376;-4.312;2022-11-03T04:55:40;2.72;;;0.40;;
53064;SDS011;38948;48.376;-4.312;2022-11-03T05:00:46;0.82;;;0.40;;
53064;SDS011;38948;48.376;-4.312;2022-11-03T05:03:16;1.65;;;0.55;;
53064;SDS011;38948;48.376;-4.312;2022-11-03T05:05:46;1.27;;;0.30;;
53064;SDS011;38948;48.376;-4.312;2022-11-03T05:08:12;1.13;;;0.30;;
53064;SDS011;38948;48.376;-4.312;2022-11-03T05:10:37;1.75;;;0.30;;
53064;SDS011;38948;48.376;-4.312;2022-11-03T05:13:04;2.05;;;1.15;;
53064;SDS011;38948;48.376;-4.312;2022-11-03T05:15:40;1.23;;;0.38;;
53064;SDS011;38948;48.376;-4.312;2022-11-03T05:18:19;1.70;;;0.50;;
53064;SDS011;38948;48.376;-4.312;2022-11-03T05:20:50;1.27;;;0.35;;
53064;SDS011;38948;48.376;-4.312;2022-11-03T05:23:20;1.08;;;0.25;;
53064;SDS011;38948;48.376;-4.312;2022-11-03T05:25:48;2.35;;;0.30;;
53064;SDS011;38948;48.376;-4.312;2022-11-03T05:28:21;0.90;;;0.20;;
53064;SDS011;38948;48.376;-4.312;2022-11-03T05:30:59;2.70;;;1.10;;
53064;SDS011;38948;48.376;-4.312;2022-11-03T05:33:26;0.40;;;0.15;;
53064;SDS011;38948;48.376;-4.312;2022-11-03T05:36:07;0.70;;;0.30;;
53064;SDS011;38948;48.376;-4.312;2022-11-03T05:38:40;2.70;;;0.40;;
53064;SDS011;38948;48.376;-4.312;2022-11-03T05:41:23;1.25;;;0.30;;
53064;SDS011;38948;48.376;-4.312;2022-11-03T05:43:58;1.58;;;0.30;;
53064;SDS011;38948;48.376;-4.312;2022-11-03T05:46:36;4.15;;;0.32;;
53064;SDS011;38948;48.376;-4.312;2022-11-03T05:49:02;0.77;;;0.20;;
53064;SDS011;38948;48.376;-4.312;2022-11-03T05:51:35;0.63;;;0.38;;
53064;SDS011;38948;48.376;-4.312;2022-11-03T05:54:04;1.13;;;0.30;;
53064;SDS011;38948;48.376;-4.312;2022-11-03T05:56:37;0.77;;;0.20;;
53064;SDS011;38948;48.376;-4.312;2022-11-03T05:59:02;1.65;;;0.35;;
53064;SDS011;38948;48.376;-4.312;2022-11-03T06:01:30;1.05;;;0.20;;
53064;SDS011;38948;48.376;-4.312;2022-11-03T06:03:59;0.47;;;0.17;;
53064;SDS011;38948;48.376;-4.312;2022-11-03T06:06:28;1.30;;;0.40;;
53064;SDS011;38948;48.376;-4.312;2022-11-03T06:09:02;0.85;;;0.13;;
53064;SDS011;38948;48.376;-4.312;2022-11-03T06:11:40;1.75;;;0.30;;
53064;SDS011;38948;48.376;-4.312;2022-11-03T06:19:31;1.00;;;0.25;;
53064;SDS011;38948;48.376;-4.312;2022-11-03T06:24:46;2.30;;;0.30;;
53064;SDS011;38948;48.376;-4.312;2022-11-03T06:27:15;1.15;;;0.38;;
53064;SDS011;38948;48.376;-4.312;2022-11-03T06:29:47;0.50;;;0.15;;
53064;SDS011;38948;48.376;-4.312;2022-11-03T06:32:16;0.45;;;0.20;;
53064;SDS011;38948;48.376;-4.312;2022-11-03T06:34:43;1.20;;;0.30;;
53064;SDS011;38948;48.376;-4.312;2022-11-03T06:37:19;0.47;;;0.10;;
53064;SDS011;38948;48.376;-4.312;2022-11-03T06:39:50;0.57;;;0.15;;
53064;SDS011;38948;48.376;-4.312;2022-11-03T06:42:25;0.38;;;0.10;;
53064;SDS011;38948;48.376;-4.312;2022-11-03T06:44:55;0.93;;;0.30;;
53064;SDS011;38948;48.376;-4.312;2022-11-03T06:49:52;1.52;;;0.30;;
53064;SDS011;38948;48.376;-4.312;2022-11-03T06:57:42;0.57;;;0.30;;
53064;SDS011;38948;48.376;-4.312;2022-11-03T07:00:14;0.40;;;0.20;;
53064;SDS011;38948;48.376;-4.312;2022-11-03T07:05:17;0.43;;;0.20;;
53064;SDS011;38948;48.376;-4.312;2022-11-03T07:07:48;0.10;;;0.10;;
53064;SDS011;38948;48.376;-4.312;2022-11-03T07:10:15;0.45;;;0.20;;
53064;SDS011;38948;48.376;-4.312;2022-11-03T07:12:41;1.30;;;0.28;;
53064;SDS011;38948;48.376;-4.312;2022-11-03T07:15:15;1.50;;;0.40;;
53064;SDS011;38948;48.376;-4.312;2022-11-03T07:17:50;1.42;;;0.30;;
53064;SDS011;38948;48.376;-4.312;2022-11-03T07:20:17;1.40;;;0.47;;
53064;SDS011;38948;48.376;-4.312;2022-11-03T07:22:43;0.50;;;0.30;;
53064;SDS011;38948;48.376;-4.312;2022-11-03T07:25:17;1.63;;;0.55;;
53064;SDS011;38948;48.376;-4.312;2022-11-03T07:27:46;1.58;;;0.30;;
53064;SDS011;38948;48.376;-4.312;2022-11-03T07:32:44;1.35;;;0.43;;
53064;SDS011;38948;48.376;-4.312;2022-11-03T07:37:50;4.05;;;0.30;;
53064;SDS011;38948;48.376;-4.312;2022-11-03T07:40:23;2.47;;;0.57;;
53064;SDS011;38948;48.376;-4.312;2022-11-03T07:42:51;1.17;;;0.40;;
53064;SDS011;38948;48.376;-4.312;2022-11-03T07:45:29;2.75;;;0.35;;
53064;SDS011;38948;48.376;-4.312;2022-11-03T07:50:47;2.67;;;0.20;;
53064;SDS011;38948;48.376;-4.312;2022-11-03T07:53:19;4.35;;;0.40;;
53064;SDS011;38948;48.376;-4.312;2022-11-03T07:55:53;0.20;;;0.20;;
53064;SDS011;38948;48.376;-4.312;2022-11-03T07:58:24;0.55;;;0.22;;
53064;SDS011;38948;48.376;-4.312;2022-11-03T08:01:07;6.32;;;0.52;;
53064;SDS011;38948;48.376;-4.312;2022-11-03T08:03:51;5.07;;;0.40;;
53064;SDS011;38948;48.376;-4.312;2022-11-03T08:06:20;2.65;;;0.60;;
53064;SDS011;38948;48.376;-4.312;2022-11-03T08:08:46;2.13;;;0.60;;
53064;SDS011;38948;48.376;-4.312;2022-11-03T08:11:11;1.40;;;0.30;;
53064;SDS011;38948;48.376;-4.312;2022-11-03T08:13:37;1.33;;;0.35;;
53064;SDS011;38948;48.376;-4.312;2022-11-03T08:16:03;2.65;;;0.93;;
53064;SDS011;38948;48.376;-4.312;2022-11-03T08:18:29;1.83;;;0.38;;
53064;SDS011;38948;48.376;-4.312;2022-11-03T08:20:55;3.45;;;0.52;;
53064;SDS011;38948;48.376;-4.312;2022-11-03T08:23:21;2.53;;;0.60;;
53064;SDS011;38948;48.376;-4.312;2022-11-03T08:25:47;2.28;;;0.38;;
53064;SDS011;38948;48.376;-4.312;2022-11-03T08:28:13;4.05;;;0.98;;
53064;SDS011;38948;48.376;-4.312;2022-11-03T08:30:38;6.57;;;0.63;;
53064;SDS011;38948;48.376;-4.312;2022-11-03T08:33:04;1.73;;;0.28;;
53064;SDS011;38948;48.376;-4.312;2022-11-03T08:35:30;2.38;;;0.43;;
53064;SDS011;38948;48.376;-4.312;2022-11-03T08:37:56;1.73;;;0.70;;
53064;SDS011;38948;48.376;-4.312;2022-11-03T08:40:22;4.22;;;0.65;;
53064;SDS011;38948;48.376;-4.312;2022-11-03T08:42:48;2.88;;;0.95;;
53064;SDS011;38948;48.376;-4.312;2022-11-03T08:45:14;5.30;;;0.40;;
53064;SDS011;38948;48.376;-4.312;2022-11-03T08:47:41;1.83;;;0.43;;
53064;SDS011;38948;48.376;-4.312;2022-11-03T08:50:06;1.88;;;0.40;;
53064;SDS011;38948;48.376;-4.312;2022-11-03T08:52:32;1.63;;;0.45;;
53064;SDS011;38948;48.376;-4.312;2022-11-03T08:54:58;6.05;;;0.68;;
53064;SDS011;38948;48.376;-4.312;2022-11-03T08:57:24;4.72;;;0.63;;
53064;SDS011;38948;48.376;-4.312;2022-11-03T08:59:50;2.10;;;0.50;;
53064;SDS011;38948;48.376;-4.312;2022-11-03T09:02:17;2.45;;;0.45;;
53064;SDS011;38948;48.376;-4.312;2022-11-03T09:04:43;2.83;;;0.73;;
53064;SDS011;38948;48.376;-4.312;2022-11-03T09:07:09;2.00;;;0.40;;
53064;SDS011;38948;48.376;-4.312;2022-11-03T09:09:34;1.45;;;0.47;;
53064;SDS011;38948;48.376;-4.312;2022-11-03T09:12:00;2.65;;;0.45;;
53064;SDS011;38948;48.376;-4.312;2022-11-03T09:14:27;3.10;;;0.88;;
53064;SDS011;38948;48.376;-4.312;2022-11-03T09:16:53;2.25;;;0.70;;
53064;SDS011;38948;48.376;-4.312;2022-11-03T09:19:18;0.95;;;0.43;;
53064;SDS011;38948;48.376;-4.312;2022-11-03T09:21:44;2.80;;;0.50;;
53064;SDS011;38948;48.376;-4.312;2022-11-03T09:24:11;4.13;;;0.70;;
53064;SDS011;38948;48.376;-4.312;2022-11-03T09:26:37;3.20;;;0.30;;
53064;SDS011;38948;48.376;-4.312;2022-11-03T09:29:03;1.27;;;0.55;;
53064;SDS011;38948;48.376;-4.312;2022-11-03T09:31:28;2.85;;;0.30;;
53064;SDS011;38948;48.376;-4.312;2022-11-03T09:33:54;4.65;;;0.60;;
53064;SDS011;38948;48.376;-4.312;2022-11-03T09:36:20;2.83;;;0.60;;
53064;SDS011;38948;48.376;-4.312;2022-11-03T09:38:46;2.90;;;0.68;;
53064;SDS011;38948;48.376;-4.312;2022-11-03T09:41:12;3.78;;;0.40;;
53064;SDS011;38948;48.376;-4.312;2022-11-03T09:43:44;1.83;;;0.60;;
53064;SDS011;38948;48.376;-4.312;2022-11-03T09:46:14;1.48;;;0.55;;
53064;SDS011;38948;48.376;-4.312;2022-11-03T09:48:41;3.00;;;0.50;;
53064;SDS011;38948;48.376;-4.312;2022-11-03T09:51:09;1.38;;;0.38;;
53064;SDS011;38948;48.376;-4.312;2022-11-03T09:53:41;1.85;;;0.47;;
53064;SDS011;38948;48.376;-4.312;2022-11-03T09:56:08;1.33;;;0.38;;
53064;SDS011;38948;48.376;-4.312;2022-11-03T09:58:35;5.20;;;0.60;;
53064;SDS011;38948;48.376;-4.312;2022-11-03T10:01:01;2.60;;;0.50;;
53064;SDS011;38948;48.376;-4.312;2022-11-03T10:03:29;1.80;;;0.40;;
53064;SDS011;38948;48.376;-4.312;2022-11-03T10:05:55;6.05;;;0.50;;
53064;SDS011;38948;48.376;-4.312;2022-11-03T10:10:51;2.70;;;0.30;;
53064;SDS011;38948;48.376;-4.312;2022-11-03T10:13:37;3.45;;;0.70;;
53064;SDS011;38948;48.376;-4.312;2022-11-03T10:16:09;1.88;;;1.40;;
53064;SDS011;38948;48.376;-4.312;2022-11-03T10:18:39;1.70;;;0.60;;
53064;SDS011;38948;48.376;-4.312;2022-11-03T10:21:13;1.60;;;0.50;;
53064;SDS011;38948;48.376;-4.312;2022-11-03T10:23:43;3.22;;;0.45;;
53064;SDS011;38948;48.376;-4.312;2022-11-03T10:26:10;1.00;;;0.50;;
53064;SDS011;38948;48.376;-4.312;2022-11-03T10:28:40;1.45;;;0.30;;
53064;SDS011;38948;48.376;-4.312;2022-11-03T10:33:58;2.13;;;0.40;;
53064;SDS011;38948;48.376;-4.312;2022-11-03T10:36:25;3.40;;;0.40;;
53064;SDS011;38948;48.376;-4.312;2022-11-03T10:38:52;2.10;;;0.73;;
53064;SDS011;38948;48.376;-4.312;2022-11-03T10:41:29;2.03;;;0.43;;
53064;SDS011;38948;48.376;-4.312;2022-11-03T10:46:30;5.22;;;0.95;;
53064;SDS011;38948;48.376;-4.312;2022-11-03T10:49:03;17.65;;;1.92;;
53064;SDS011;38948;48.376;-4.312;2022-11-03T10:51:35;8.40;;;1.00;;
53064;SDS011;38948;48.376;-4.312;2022-11-03T10:54:03;7.32;;;1.45;;
53064;SDS011;38948;48.376;-4.312;2022-11-03T10:56:30;12.13;;;1.35;;
53064;SDS011;38948;48.376;-4.312;2022-11-03T10:58:58;7.95;;;0.82;;
53064;SDS011;38948;48.376;-4.312;2022-11-03T11:01:25;5.88;;;0.82;;
53064;SDS011;38948;48.376;-4.312;2022-11-03T11:03:51;7.07;;;1.30;;
53064;SDS011;38948;48.376;-4.312;2022-11-03T11:06:24;3.47;;;1.08;;
53064;SDS011;38948;48.376;-4.312;2022-11-03T11:08:52;8.15;;;0.75;;
53064;SDS011;38948;48.376;-4.312;2022-11-03T11:11:21;2.88;;;0.93;;
53064;SDS011;38948;48.376;-4.312;2022-11-03T11:16:50;11.98;;;3.58;;
53064;SDS011;38948;48.376;-4.312;2022-11-03T11:19:17;8.50;;;2.80;;
53064;SDS011;38948;48.376;-4.312;2022-11-03T11:24:11;10.43;;;2.25;;
53064;SDS011;38948;48.376;-4.312;2022-11-03T11:26:38;9.00;;;2.97;;
53064;SDS011;38948;48.376;-4.312;2022-11-03T11:31:42;10.25;;;1.88;;
53064;SDS011;38948;48.376;-4.312;2022-11-03T11:36:40;9.00;;;2.50;;
53064;SDS011;38948;48.376;-4.312;2022-11-03T11:44:44;6.78;;;2.35;;
53064;SDS011;38948;48.376;-4.312;2022-11-03T11:49:46;4.88;;;1.73;;
53064;SDS011;38948;48.376;-4.312;2022-11-03T11:52:13;6.28;;;1.60;;
53064;SDS011;38948;48.376;-4.312;2022-11-03T11:54:42;8.50;;;1.75;;
53064;SDS011;38948;48.376;-4.312;2022-11-03T11:57:16;8.07;;;1.98;;
53064;SDS011;38948;48.376;-4.312;2022-11-03T11:59:45;6.22;;;1.42;;
53064;SDS011;38948;48.376;-4.312;2022-11-03T12:02:17;7.43;;;1.75;;
53064;SDS011;38948;48.376;-4.312;2022-11-03T12:04:48;3.55;;;0.93;;
53064;SDS011;38948;48.376;-4.312;2022-11-03T12:07:30;5.03;;;1.60;;
53064;SDS011;38948;48.376;-4.312;2022-11-03T12:12:47;6.90;;;1.40;;
53064;SDS011;38948;48.376;-4.312;2022-11-03T12:20:54;7.95;;;1.17;;
53064;SDS011;38948;48.376;-4.312;2022-11-03T12:23:40;4.78;;;0.98;;
53064;SDS011;38948;48.376;-4.312;2022-11-03T12:26:13;8.35;;;1.17;;
53064;SDS011;38948;48.376;-4.312;2022-11-03T12:28:39;4.63;;;1.30;;
53064;SDS011;38948;48.376;-4.312;2022-11-03T12:31:05;4.05;;;0.75;;
53064;SDS011;38948;48.376;-4.312;2022-11-03T12:33:31;6.18;;;1.00;;
53064;SDS011;38948;48.376;-4.312;2022-11-03T12:35:57;5.88;;;0.88;;
53064;SDS011;38948;48.376;-4.312;2022-11-03T12:38:23;7.55;;;1.27;;
53064;SDS011;38948;48.376;-4.312;2022-11-03T12:40:49;7.05;;;1.02;;
53064;SDS011;38948;48.376;-4.312;2022-11-03T12:43:17;5.70;;;1.02;;
53064;SDS011;38948;48.376;-4.312;2022-11-03T12:45:43;4.55;;;1.10;;
53064;SDS011;38948;48.376;-4.312;2022-11-03T12:48:10;6.47;;;0.68;;
53064;SDS011;38948;48.376;-4.312;2022-11-03T12:50:36;4.68;;;1.17;;
53064;SDS011;38948;48.376;-4.312;2022-11-03T12:53:03;5.35;;;0.75;;
53064;SDS011;38948;48.376;-4.312;2022-11-03T12:55:30;4.38;;;0.90;;
53064;SDS011;38948;48.376;-4.312;2022-11-03T12:57:57;4.00;;;0.90;;
53064;SDS011;38948;48.376;-4.312;2022-11-03T13:00:23;5.82;;;1.02;;
53064;SDS011;38948;48.376;-4.312;2022-11-03T13:02:49;9.85;;;1.30;;
53064;SDS011;38948;48.376;-4.312;2022-11-03T13:05:15;4.80;;;1.00;;
53064;SDS011;38948;48.376;-4.312;2022-11-03T13:07:41;3.58;;;0.80;;
53064;SDS011;38948;48.376;-4.312;2022-11-03T13:10:07;6.45;;;1.02;;
53064;SDS011;38948;48.376;-4.312;2022-11-03T13:12:34;2.83;;;0.73;;
53064;SDS011;38948;48.376;-4.312;2022-11-03T13:15:05;6.70;;;1.27;;
53064;SDS011;38948;48.376;-4.312;2022-11-03T13:17:32;5.78;;;1.02;;
53064;SDS011;38948;48.376;-4.312;2022-11-03T13:19:59;5.57;;;0.80;;
53064;SDS011;38948;48.376;-4.312;2022-11-03T13:22:25;7.00;;;0.85;;
53064;SDS011;38948;48.376;-4.312;2022-11-03T13:24:51;5.25;;;0.88;;
53064;SDS011;38948;48.376;-4.312;2022-11-03T13:27:18;5.68;;;1.35;;
53064;SDS011;38948;48.376;-4.312;2022-11-03T13:29:44;6.13;;;0.90;;
53064;SDS011;38948;48.376;-4.312;2022-11-03T13:32:10;5.90;;;1.70;;
53064;SDS011;38948;48.376;-4.312;2022-11-03T13:34:36;7.15;;;0.88;;
53064;SDS011;38948;48.376;-4.312;2022-11-03T13:37:02;8.85;;;1.20;;
53064;SDS011;38948;48.376;-4.312;2022-11-03T13:39:29;4.40;;;0.98;;
53064;SDS011;38948;48.376;-4.312;2022-11-03T13:41:54;8.18;;;1.00;;
53064;SDS011;38948;48.376;-4.312;2022-11-03T13:44:20;5.45;;;0.80;;
53064;SDS011;38948;48.376;-4.312;2022-11-03T13:46:46;5.50;;;0.88;;
53064;SDS011;38948;48.376;-4.312;2022-11-03T13:49:12;4.47;;;0.73;;
53064;SDS011;38948;48.376;-4.312;2022-11-03T13:51:40;4.05;;;0.85;;
53064;SDS011;38948;48.376;-4.312;2022-11-03T13:54:06;4.15;;;0.80;;
53064;SDS011;38948;48.376;-4.312;2022-11-03T13:56:31;4.57;;;1.00;;
53064;SDS011;38948;48.376;-4.312;2022-11-03T13:58:57;3.20;;;0.55;;
53064;SDS011;38948;48.376;-4.312;2022-11-03T14:01:23;7.03;;;0.80;;
53064;SDS011;38948;48.376;-4.312;2022-11-03T14:03:49;5.72;;;1.08;;
53064;SDS011;38948;48.376;-4.312;2022-11-03T14:06:15;5.47;;;1.08;;
53064;SDS011;38948;48.376;-4.312;2022-11-03T14:08:41;4.28;;;1.10;;
53064;SDS011;38948;48.376;-4.312;2022-11-03T14:11:07;4.57;;;0.90;;
53064;SDS011;38948;48.376;-4.312;2022-11-03T14:13:51;7.43;;;1.42;;
53064;SDS011;38948;48.376;-4.312;2022-11-03T14:16:17;13.02;;;2.03;;
53064;SDS011;38948;48.376;-4.312;2022-11-03T14:18:43;7.53;;;1.42;;
53064;SDS011;38948;48.376;-4.312;2022-11-03T14:21:09;5.95;;;1.08;;
53064;SDS011;38948;48.376;-4.312;2022-11-03T14:23:35;6.07;;;1.55;;
53064;SDS011;38948;48.376;-4.312;2022-11-03T14:26:00;5.05;;;0.82;;
53064;SDS011;38948;48.376;-4.312;2022-11-03T14:28:27;5.43;;;0.95;;
53064;SDS011;38948;48.376;-4.312;2022-11-03T14:30:53;5.82;;;0.95;;
53064;SDS011;38948;48.376;-4.312;2022-11-03T14:33:23;5.35;;;0.98;;
53064;SDS011;38948;48.376;-4.312;2022-11-03T14:35:50;8.18;;;1.25;;
53064;SDS011;38948;48.376;-4.312;2022-11-03T14:38:16;7.43;;;1.30;;
53064;SDS011;38948;48.376;-4.312;2022-11-03T14:40:42;6.85;;;1.63;;
53064;SDS011;38948;48.376;-4.312;2022-11-03T14:43:26;5.65;;;1.02;;
53064;SDS011;38948;48.376;-4.312;2022-11-03T14:45:52;8.98;;;1.25;;
53064;SDS011;38948;48.376;-4.312;2022-11-03T14:48:18;2.42;;;1.00;;
53064;SDS011;38948;48.376;-4.312;2022-11-03T14:50:44;8.75;;;1.70;;
53064;SDS011;38948;48.376;-4.312;2022-11-03T14:53:14;10.77;;;1.52;;
53064;SDS011;38948;48.376;-4.312;2022-11-03T14:55:40;3.88;;;0.88;;
53064;SDS011;38948;48.376;-4.312;2022-11-03T14:58:09;4.00;;;0.80;;
53064;SDS011;38948;48.376;-4.312;2022-11-03T15:00:35;3.95;;;1.20;;
53064;SDS011;38948;48.376;-4.312;2022-11-03T15:03:01;4.55;;;1.02;;
53064;SDS011;38948;48.376;-4.312;2022-11-03T15:05:27;2.47;;;0.73;;
53064;SDS011;38948;48.376;-4.312;2022-11-03T15:08:09;3.25;;;0.70;;
53064;SDS011;38948;48.376;-4.312;2022-11-03T15:10:36;3.50;;;0.68;;
53064;SDS011;38948;48.376;-4.312;2022-11-03T15:13:02;4.55;;;0.93;;
53064;SDS011;38948;48.376;-4.312;2022-11-03T15:15:28;4.20;;;0.88;;
53064;SDS011;38948;48.376;-4.312;2022-11-03T15:17:54;4.07;;;1.20;;
53064;SDS011;38948;48.376;-4.312;2022-11-03T15:20:20;4.05;;;1.00;;
53064;SDS011;38948;48.376;-4.312;2022-11-03T15:22:46;2.67;;;0.90;;
53064;SDS011;38948;48.376;-4.312;2022-11-03T15:25:12;4.93;;;0.90;;
53064;SDS011;38948;48.376;-4.312;2022-11-03T15:27:38;3.95;;;1.20;;
53064;SDS011;38948;48.376;-4.312;2022-11-03T15:30:05;1.45;;;0.65;;
53064;SDS011;38948;48.376;-4.312;2022-11-03T15:32:34;4.47;;;1.23;;
53064;SDS011;38948;48.376;-4.312;2022-11-03T15:35:00;3.05;;;0.73;;
53064;SDS011;38948;48.376;-4.312;2022-11-03T15:37:26;7.75;;;0.90;;
53064;SDS011;38948;48.376;-4.312;2022-11-03T15:39:52;7.13;;;0.95;;
53064;SDS011;38948;48.376;-4.312;2022-11-03T15:42:17;3.88;;;0.82;;
53064;SDS011;38948;48.376;-4.312;2022-11-03T15:44:43;3.38;;;0.70;;
53064;SDS011;38948;48.376;-4.312;2022-11-03T15:47:09;5.28;;;1.05;;
53064;SDS011;38948;48.376;-4.312;2022-11-03T15:49:35;3.85;;;1.02;;
53064;SDS011;38948;48.376;-4.312;2022-11-03T15:52:01;5.65;;;1.15;;
53064;SDS011;38948;48.376;-4.312;2022-11-03T15:54:27;4.78;;;1.00;;
53064;SDS011;38948;48.376;-4.312;2022-11-03T15:56:52;4.78;;;1.00;;
53064;SDS011;38948;48.376;-4.312;2022-11-03T15:59:18;1.70;;;0.40;;
53064;SDS011;38948;48.376;-4.312;2022-11-03T16:01:44;2.85;;;0.90;;
53064;SDS011;38948;48.376;-4.312;2022-11-03T16:04:10;3.05;;;0.65;;
53064;SDS011;38948;48.376;-4.312;2022-11-03T16:06:36;2.20;;;0.50;;
53064;SDS011;38948;48.376;-4.312;2022-11-03T16:09:02;2.58;;;0.52;;
53064;SDS011;38948;48.376;-4.312;2022-11-03T16:11:29;4.47;;;0.90;;
53064;SDS011;38948;48.376;-4.312;2022-11-03T16:13:55;2.65;;;0.55;;
53064;SDS011;38948;48.376;-4.312;2022-11-03T16:16:20;1.90;;;0.77;;